Time;durP1;ratioP1;P1;durP2;ratioP2;P2;SDS_P1;SDS_P2;PMS_P1;PMS_P2;Temp;Humidity;BMP_temperature;BMP_pressure;BME280_temperature;BME280_humidity;BME280_pressure;Samples;Min_cycle;Max_cycle;Signal;HPM_P1;HPM_P2
2023/11/20 00:01:12;;;;;;;12.30;7.90;;;;;;;6.22;41.06;99720.41;108236;1255;73862;-67
2023/11/20 00:03:39;;;;;;;13.40;8.20;;;;;;;6.24;40.92;99718.63;108291;1251;69867;-68
2023/11/20 00:06:07;;;;;;;11.60;6.70;;;;;;;6.15;40.95;99710.84;108294;1256;72368;-67
2023/11/20 00:08:33;;;;;;;14.40;8.10;;;;;;;6.17;40.92;99708.17;108283;1251;60543;-67
2023/11/20 00:11:00;;;;;;;11.00;7.20;;;;;;;6.24;40.77;99709.89;108318;1251;60267;-67
2023/11/20 00:13:27;;;;;;;14.20;8.40;;;;;;;6.25;41.05;99715.10;108261;1251;73615;-67
2023/11/20 00:15:53;;;;;;;16.90;8.90;;;;;;;6.28;40.98;99713.11;108368;1251;70330;-67
2023/11/20 00:18:21;;;;;;;16.60;8.60;;;;;;;6.23;40.91;99711.31;108242;1251;72704;-67
2023/11/20 00:20:48;;;;;;;11.90;7.10;;;;;;;6.23;40.96;99712.02;108227;1251;61676;-67
2023/11/20 00:23:14;;;;;;;17.30;8.80;;;;;;;5.96;41.28;99706.94;108269;1251;60384;-67
2023/11/20 00:25:41;;;;;;;14.60;8.30;;;;;;;5.85;41.58;99704.94;108377;1251;73716;-67
2023/11/20 00:28:08;;;;;;;13.60;8.20;;;;;;;5.91;41.72;99704.63;108410;1251;68944;-68
2023/11/20 00:30:35;;;;;;;13.50;7.60;;;;;;;5.89;41.64;99703.08;108213;1251;70512;-67
2023/11/20 00:33:03;;;;;;;13.50;8.00;;;;;;;5.83;41.99;99703.08;108265;1250;61669;-67
2023/11/20 00:35:30;;;;;;;16.50;8.00;;;;;;;5.80;41.84;99701.73;108296;1250;60245;-67
2023/11/20 00:37:56;;;;;;;15.90;8.70;;;;;;;5.73;41.85;99698.93;108240;1251;73654;-66
2023/11/20 00:40:23;;;;;;;14.70;9.20;;;;;;;5.72;41.85;99695.16;108229;1251;70314;-67
2023/11/20 00:42:50;;;;;;;12.00;7.70;;;;;;;5.72;41.73;99697.55;108252;1251;60405;-65
2023/11/20 00:45:16;;;;;;;17.30;9.00;;;;;;;5.78;41.66;99691.15;108204;1251;61899;-67
2023/11/20 00:47:43;;;;;;;15.40;9.40;;;;;;;5.54;42.16;99693.30;108202;1251;60408;-67
2023/11/20 00:50:10;;;;;;;14.00;9.00;;;;;;;5.57;42.05;99694.27;108318;1250;73624;-67
2023/11/20 00:52:37;;;;;;;19.60;9.90;;;;;;;5.44;42.56;99697.19;108314;1250;69189;-66
2023/11/20 00:55:13;;;;;;;16.80;7.60;;;;;;;5.57;42.54;99698.63;108343;1251;72788;-67
2023/11/20 00:57:40;;;;;;;17.00;8.70;;;;;;;5.73;42.18;99699.29;108213;1254;62218;-67
2023/11/20 01:00:11;;;;;;;15.60;8.30;;;;;;;5.72;42.19;99701.75;108311;1251;60279;-68
2023/11/20 01:02:39;;;;;;;14.60;8.60;;;;;;;5.59;42.22;99701.01;108224;1251;73528;-68
2023/11/20 01:05:07;;;;;;;12.80;8.30;;;;;;;5.45;42.51;99700.48;108219;1251;70368;-67
2023/11/20 01:07:34;;;;;;;13.90;8.60;;;;;;;5.54;42.40;99696.95;108354;1251;72447;-68
2023/11/20 01:10:00;;;;;;;16.60;9.70;;;;;;;5.76;41.88;99691.38;108290;1255;59575;-68
2023/11/20 01:12:27;;;;;;;15.10;8.90;;;;;;;5.88;41.59;99688.30;108324;1251;60581;-67
2023/11/20 01:14:54;;;;;;;15.20;9.00;;;;;;;5.93;41.41;99685.58;108263;1251;73698;-67
2023/11/20 01:17:21;;;;;;;16.40;9.20;;;;;;;5.83;41.88;99684.41;108274;1251;70266;-67
2023/11/20 01:19:47;;;;;;;19.60;10.40;;;;;;;5.45;42.68;99682.71;108277;1251;72609;-67
2023/11/20 01:22:15;;;;;;;14.70;9.00;;;;;;;5.35;42.84;99683.81;108277;1251;60422;-67
2023/11/20 01:24:42;;;;;;;15.70;8.60;;;;;;;5.69;42.29;99685.80;108269;1251;60357;-67
2023/11/20 01:27:08;;;;;;;14.80;8.20;;;;;;;5.59;42.32;99691.61;108258;1251;73852;-67
2023/11/20 01:29:35;;;;;;;15.10;9.70;;;;;;;5.48;42.36;99689.60;108289;1251;70060;-67
2023/11/20 01:32:02;;;;;;;17.20;9.60;;;;;;;5.46;42.44;99687.56;108203;1251;59217;-67
2023/11/20 01:34:29;;;;;;;15.30;8.30;;;;;;;5.59;42.08;99686.55;108267;1251;61802;-67
2023/11/20 01:36:56;;;;;;;18.70;9.80;;;;;;;5.79;42.04;99680.14;108210;1251;60431;-67
2023/11/20 01:39:22;;;;;;;15.40;9.70;;;;;;;5.83;41.89;99674.66;108219;1251;73677;-66
2023/11/20 01:41:49;;;;;;;15.50;9.20;;;;;;;5.76;41.88;99671.02;108243;1251;70324;-67
2023/11/20 01:44:16;;;;;;;14.90;8.70;;;;;;;5.72;42.08;99667.98;108230;1251;73136;-67
2023/11/20 01:46:42;;;;;;;15.30;8.40;;;;;;;5.77;41.88;99666.45;108235;1254;61724;-67
2023/11/20 01:49:10;;;;;;;16.10;9.10;;;;;;;5.85;42.10;99665.05;108226;1251;60491;-67
2023/11/20 01:51:36;;;;;;;15.60;9.30;;;;;;;6.01;41.63;99659.76;108168;1251;73589;-68
2023/11/20 01:54:03;;;;;;;15.70;9.50;;;;;;;5.96;41.45;99661.11;108331;1251;70144;-67
2023/11/20 01:56:30;;;;;;;18.10;9.70;;;;;;;5.81;42.01;99663.05;108223;1251;72614;-67
2023/11/20 01:58:59;;;;;;;14.10;8.80;;;;;;;5.79;41.70;99665.34;108218;1251;61687;-67
2023/11/20 02:01:26;;;;;;;16.20;9.10;;;;;;;5.85;41.69;99668.34;108258;1256;60492;-66
2023/11/20 02:03:56;;;;;;;16.30;9.20;;;;;;;5.85;41.67;99667.30;108361;1251;73820;-68
2023/11/20 02:06:24;;;;;;;16.50;9.40;;;;;;;5.91;41.75;99663.31;108302;1252;68863;-66
2023/11/20 02:08:50;;;;;;;13.00;9.00;;;;;;;5.79;42.14;99666.39;108346;1251;73188;-67
2023/11/20 02:11:17;;;;;;;16.70;9.50;;;;;;;5.69;42.26;99664.37;108247;1251;61922;-67
2023/11/20 02:13:44;;;;;;;16.40;9.00;;;;;;;5.85;41.88;99663.11;108274;1251;60405;-67
2023/11/20 02:16:11;;;;;;;16.30;9.60;;;;;;;5.87;41.83;99664.11;108256;1250;72580;-67
2023/11/20 02:18:37;;;;;;;14.50;8.30;;;;;;;5.87;41.60;99663.07;108318;1251;69567;-67
2023/11/20 02:21:07;;;;;;;18.20;9.70;;;;;;;5.84;41.89;99663.14;108277;1253;72815;-67
2023/11/20 02:23:34;;;;;;;17.00;9.40;;;;;;;5.83;41.81;99659.67;108316;1250;62158;-67
2023/11/20 02:26:24;;;;;;;15.50;9.50;;;;;;;5.74;41.80;99653.81;108204;1251;60498;-67
2023/11/20 02:28:56;;;;;;;15.50;8.80;;;;;;;5.91;41.51;99649.90;108291;1251;73525;-67
2023/11/20 02:31:23;;;;;;;17.30;9.50;;;;;;;5.80;41.81;99652.09;108359;1251;70132;-67
2023/11/20 02:33:50;;;;;;;13.50;8.10;;;;;;;5.72;41.95;99650.03;108317;1250;72479;-68
2023/11/20 02:36:23;;;;;;;16.10;8.70;;;;;;;5.80;41.75;99645.64;108200;1250;62048;-67
2023/11/20 02:38:50;;;;;;;14.70;8.80;;;;;;;5.57;41.96;99643.23;108293;1251;60307;-67
2023/11/20 02:41:17;;;;;;;16.00;9.10;;;;;;;5.73;41.93;99642.68;108332;1251;74414;-66
2023/11/20 02:43:44;;;;;;;14.00;8.90;;;;;;;5.61;42.30;99640.52;108399;1251;70131;-67
2023/11/20 02:46:11;;;;;;;14.60;9.00;;;;;;;5.60;42.47;99638.80;108309;1251;71637;-67
2023/11/20 02:48:39;;;;;;;17.80;9.90;;;;;;;5.66;42.24;99636.59;108378;1257;61870;-67
2023/11/20 02:51:06;;;;;;;17.90;9.10;;;;;;;5.55;42.35;99633.70;108234;1251;60425;-67
2023/11/20 02:53:33;;;;;;;16.70;9.00;;;;;;;5.41;42.71;99632.33;108392;1257;73743;-66
2023/11/20 02:55:59;;;;;;;14.70;9.50;;;;;;;5.56;42.52;99627.23;108217;1251;70921;-67
2023/11/20 02:58:26;;;;;;;17.70;9.80;;;;;;;5.59;42.24;99628.05;108197;1251;72386;-66
2023/11/20 03:00:53;;;;;;;16.60;9.30;;;;;;;5.56;42.38;99625.86;108222;1251;60399;-67
2023/11/20 03:03:20;;;;;;;18.90;10.10;;;;;;;5.39;42.72;99624.35;108283;1251;60299;-67
2023/11/20 03:05:46;;;;;;;15.70;9.80;;;;;;;5.52;42.45;99620.89;108336;1251;73719;-67
2023/11/20 03:08:13;;;;;;;17.80;9.40;;;;;;;5.45;42.35;99617.77;108261;1251;70186;-67
2023/11/20 03:10:40;;;;;;;14.80;8.10;;;;;;;5.29;42.65;99615.73;108160;1251;59542;-67
2023/11/20 03:13:07;;;;;;;14.10;9.30;;;;;;;5.33;42.86;99611.10;108255;1251;61841;-67
2023/11/20 03:15:34;;;;;;;18.30;9.80;;;;;;;5.36;42.97;99609.46;108318;1255;60819;-69
2023/11/20 03:18:01;;;;;;;17.50;9.10;;;;;;;5.35;43.09;99608.80;108284;1251;72508;-68
2023/11/20 03:20:28;;;;;;;18.10;10.50;;;;;;;5.35;43.15;99605.84;108282;1251;69142;-67
2023/11/20 03:22:55;;;;;;;14.00;8.80;;;;;;;5.47;42.80;99602.07;108243;1255;72753;-67
2023/11/20 03:25:21;;;;;;;17.00;9.70;;;;;;;5.54;42.69;99597.01;108200;1251;61645;-67
2023/11/20 03:27:48;;;;;;;15.20;9.00;;;;;;;5.63;42.40;99594.86;108240;1251;60508;-68
2023/11/20 03:30:16;;;;;;;16.60;9.40;;;;;;;5.65;42.49;99589.41;108228;1251;60316;-67
2023/11/20 03:32:42;;;;;;;16.70;8.90;;;;;;;5.68;42.28;99589.52;108209;1251;70403;-67
2023/11/20 03:35:09;;;;;;;14.00;8.50;;;;;;;5.68;42.41;99587.25;108228;1251;71291;-67
2023/11/20 03:37:37;;;;;;;17.20;8.70;;;;;;;5.71;42.41;99586.84;108290;1251;61772;-67
2023/11/20 03:40:04;;;;;;;16.40;9.70;;;;;;;5.65;42.37;99585.39;108227;1251;60292;-67
2023/11/20 03:42:30;;;;;;;15.10;9.10;;;;;;;5.63;42.21;99587.36;108199;1251;73878;-66
2023/11/20 03:44:57;;;;;;;18.40;10.40;;;;;;;5.75;42.19;99580.82;108260;1251;70329;-67
2023/11/20 03:47:23;;;;;;;18.90;10.00;;;;;;;5.66;42.29;99582.77;108264;1256;59657;-67
2023/11/20 03:49:50;;;;;;;18.90;11.10;;;;;;;5.82;41.98;99580.45;108192;1251;60299;-67
2023/11/20 03:52:17;;;;;;;13.70;8.40;;;;;;;5.66;42.06;99578.39;108218;1255;60299;-67
2023/11/20 03:54:43;;;;;;;16.00;9.20;;;;;;;5.65;42.08;99575.65;108255;1251;60129;-66
2023/11/20 03:57:10;;;;;;;17.60;9.70;;;;;;;5.62;42.35;99579.73;108220;1251;60411;-66
2023/11/20 03:59:37;;;;;;;16.80;10.30;;;;;;;5.67;42.03;99574.20;108163;1251;71457;-66
2023/11/20 04:02:03;;;;;;;15.20;8.70;;;;;;;5.72;42.03;99571.13;108244;1250;60699;-67
2023/11/20 04:04:30;;;;;;;17.20;10.00;;;;;;;5.73;42.22;99572.15;108284;1251;60085;-67
2023/11/20 04:06:58;;;;;;;16.70;9.30;;;;;;;5.79;41.95;99569.39;108218;1251;74181;-66
2023/11/20 04:09:25;;;;;;;19.50;10.30;;;;;;;5.66;42.27;99569.54;108251;1251;70262;-67
2023/11/20 04:11:51;;;;;;;17.20;10.10;;;;;;;5.55;42.29;99569.63;108319;1250;60277;-66
2023/11/20 04:14:18;;;;;;;16.10;10.20;;;;;;;5.60;42.38;99566.72;108210;1250;61974;-67
2023/11/20 04:16:46;;;;;;;21.10;10.60;;;;;;;5.62;42.33;99568.59;108277;1250;59148;-66
2023/11/20 04:19:13;;;;;;;16.40;9.70;;;;;;;5.60;42.36;99568.47;108279;1251;73867;-67
2023/11/20 04:21:41;;;;;;;14.60;8.90;;;;;;;5.56;42.55;99566.48;108310;1251;71495;-68
2023/11/20 04:24:08;;;;;;;16.70;10.00;;;;;;;5.56;42.62;99569.25;108342;1251;72692;-67
2023/11/20 04:26:35;;;;;;;16.10;9.00;;;;;;;5.59;42.64;99566.41;108267;1251;61797;-67
2023/11/20 04:29:01;;;;;;;21.50;10.10;;;;;;;5.67;42.68;99569.69;108316;1251;60293;-67
2023/11/20 04:31:28;;;;;;;17.50;9.80;;;;;;;5.68;42.58;99571.73;108184;1251;73614;-66
2023/11/20 04:33:55;;;;;;;17.00;10.40;;;;;;;5.62;42.47;99571.89;108302;1251;69096;-66
2023/11/20 04:36:22;;;;;;;16.20;8.80;;;;;;;5.53;42.62;99570.73;108210;1251;73007;-67
2023/11/20 04:38:49;;;;;;;15.40;8.60;;;;;;;5.49;42.97;99574.32;108259;1252;61781;-68
2023/11/20 04:41:16;;;;;;;15.90;9.60;;;;;;;5.54;43.06;99573.48;108274;1251;60340;-68
2023/11/20 04:43:42;;;;;;;15.00;8.80;;;;;;;5.51;42.85;99565.21;108260;1251;60418;-68
2023/11/20 04:46:09;;;;;;;18.90;9.50;;;;;;;5.46;42.82;99566.56;108365;1250;60421;-68
2023/11/20 04:48:36;;;;;;;17.20;9.70;;;;;;;5.46;42.80;99564.13;108296;1250;59794;-67
2023/11/20 04:51:03;;;;;;;16.10;9.30;;;;;;;5.43;42.83;99562.46;108264;1250;61845;-67
2023/11/20 04:53:29;;;;;;;21.00;8.70;;;;;;;5.38;43.18;99555.98;108281;1251;60504;-67
2023/11/20 04:55:56;;;;;;;15.90;8.90;;;;;;;5.44;43.01;99552.34;108259;1251;73755;-67
2023/11/20 04:58:23;;;;;;;14.00;8.40;;;;;;;5.31;43.24;99555.27;108243;1250;70098;-68
2023/11/20 05:00:50;;;;;;;16.10;9.50;;;;;;;5.47;43.19;99552.59;108189;1254;72546;-67
2023/11/20 05:03:17;;;;;;;15.50;8.60;;;;;;;5.51;42.99;99553.38;108284;1253;61950;-67
2023/11/20 05:05:44;;;;;;;14.70;9.00;;;;;;;5.45;42.96;99545.34;108243;1251;60647;-67
2023/11/20 05:08:11;;;;;;;16.30;10.10;;;;;;;5.43;42.72;99547.67;108074;1258;74190;-67
2023/11/20 05:10:37;;;;;;;16.60;9.90;;;;;;;5.30;42.83;99546.58;108232;1251;70228;-66
2023/11/20 05:13:04;;;;;;;16.50;9.60;;;;;;;5.31;42.98;99549.52;108253;1251;72540;-67
2023/11/20 05:15:31;;;;;;;16.30;9.20;;;;;;;5.42;42.84;99548.20;108198;1256;60938;-67
2023/11/20 05:17:57;;;;;;;15.60;9.20;;;;;;;5.43;43.03;99553.40;108252;1256;60434;-67
2023/11/20 05:20:25;;;;;;;22.00;9.80;;;;;;;5.44;42.83;99555.11;108308;1251;59124;-67
2023/11/20 05:22:52;;;;;;;16.60;9.50;;;;;;;5.34;43.01;99557.98;108261;1252;69398;-67
2023/11/20 05:25:19;;;;;;;18.90;10.40;;;;;;;5.44;42.89;99560.86;108208;1251;71491;-67
2023/11/20 05:27:45;;;;;;;15.90;8.90;;;;;;;5.48;42.91;99561.13;108281;1251;60848;-65
2023/11/20 05:30:13;;;;;;;16.70;9.60;;;;;;;5.41;43.19;99565.81;108279;1251;60736;-67
2023/11/20 05:32:40;;;;;;;16.70;9.90;;;;;;;5.36;43.17;99571.49;108275;1256;72357;-67
2023/11/20 05:35:06;;;;;;;14.70;9.30;;;;;;;5.49;42.77;99570.30;108265;1257;70009;-67
2023/11/20 05:37:33;;;;;;;14.80;9.00;;;;;;;5.53;42.90;99570.92;108240;1251;72539;-67
2023/11/20 05:40:00;;;;;;;18.70;10.70;;;;;;;5.56;42.98;99571.52;108257;1251;60184;-66
2023/11/20 05:42:26;;;;;;;19.90;10.50;;;;;;;5.62;42.98;99570.67;108306;1251;60428;-65
2023/11/20 05:44:53;;;;;;;17.00;9.60;;;;;;;5.45;43.22;99572.67;108370;1251;72334;-67
2023/11/20 05:47:20;;;;;;;18.10;10.50;;;;;;;5.50;43.19;99581.42;108291;1251;71071;-66
2023/11/20 05:49:47;;;;;;;16.50;10.00;;;;;;;5.48;43.16;99580.61;108297;1251;72513;-68
2023/11/20 05:52:13;;;;;;;19.50;11.00;;;;;;;5.41;43.34;99582.16;108271;1251;61802;-67
2023/11/20 05:54:40;;;;;;;16.30;10.20;;;;;;;5.48;43.18;99579.23;108293;1253;60506;-68
2023/11/20 05:57:07;;;;;;;16.40;9.60;;;;;;;5.53;43.24;99580.83;108320;1251;60369;-68
2023/11/20 05:59:34;;;;;;;19.30;10.00;;;;;;;5.58;43.13;99580.36;108373;1251;70772;-67
2023/11/20 06:02:01;;;;;;;19.10;10.00;;;;;;;5.60;43.16;99580.13;108227;1254;72653;-68
2023/11/20 06:04:28;;;;;;;15.50;9.60;;;;;;;5.75;42.80;99582.55;108243;1253;62548;-67
2023/11/20 06:06:55;;;;;;;20.20;9.70;;;;;;;5.73;42.76;99588.34;108278;1251;60281;-67
2023/11/20 06:09:22;;;;;;;14.50;9.70;;;;;;;5.78;42.88;99583.67;108249;1254;74407;-66
2023/11/20 06:11:49;;;;;;;17.80;10.10;;;;;;;5.71;42.86;99582.65;108234;1251;60418;-67
2023/11/20 06:14:16;;;;;;;16.00;8.80;;;;;;;5.82;42.59;99580.26;108200;1250;72514;-67
2023/11/20 06:16:43;;;;;;;21.60;10.10;;;;;;;5.71;43.02;99580.73;108337;1251;61815;-67
2023/11/20 06:19:09;;;;;;;17.50;9.70;;;;;;;5.75;42.89;99581.66;108294;1251;60302;-67
2023/11/20 06:21:49;;;;;;;16.70;9.60;;;;;;;5.59;43.33;99580.84;108196;1250;74030;-67
2023/11/20 06:24:17;;;;;;;16.20;9.20;;;;;;;5.71;43.37;99577.23;108234;1251;70164;-67
2023/11/20 06:26:43;;;;;;;20.10;9.60;;;;;;;5.91;42.97;99574.81;108271;1254;72552;-67
2023/11/20 06:29:11;;;;;;;18.80;9.90;;;;;;;5.92;43.12;99572.17;108206;1250;61967;-67
2023/11/20 06:31:38;;;;;;;15.80;9.30;;;;;;;5.86;43.14;99572.12;108208;1254;60326;-67
2023/11/20 06:34:05;;;;;;;14.80;8.60;;;;;;;5.90;43.13;99571.87;108193;1251;73726;-67
2023/11/20 06:36:32;;;;;;;21.30;12.00;;;;;;;5.88;43.25;99577.67;108235;1250;69207;-67
2023/11/20 06:38:59;;;;;;;25.40;14.90;;;;;;;5.90;42.84;99573.44;108179;1250;71479;-67
2023/11/20 06:41:27;;;;;;;26.30;14.20;;;;;;;6.01;42.72;99570.39;108209;1254;62032;-67
2023/11/20 06:43:54;;;;;;;24.50;14.80;;;;;;;5.99;42.87;99570.77;108250;1251;59511;-68
2023/11/20 06:46:21;;;;;;;40.90;22.10;;;;;;;6.11;42.69;99570.64;107994;1251;260318;-67
2023/11/20 06:50:25;;;;;;;42.90;23.90;;;;;;;4.51;46.21;99581.23;104662;1291;599857;-67
2023/11/20 06:52:52;;;;;;;32.30;20.00;;;;;;;5.97;43.32;99573.27;108045;1254;61977;-67
2023/11/20 06:55:18;;;;;;;59.30;33.70;;;;;;;6.27;42.72;99573.16;108020;1254;60087;-67
2023/11/20 06:57:46;;;;;;;35.80;20.20;;;;;;;6.07;42.76;99573.00;108071;1254;72240;-67
2023/11/20 07:00:13;;;;;;;47.80;27.00;;;;;;;6.07;43.10;99577.87;107958;1258;70247;-67
2023/11/20 07:02:42;;;;;;;28.00;16.50;;;;;;;6.18;42.88;99573.74;107856;1259;194337;-67
2023/11/20 07:05:11;;;;;;;29.70;16.40;;;;;;;6.26;42.91;99576.50;108205;1254;61038;-67
2023/11/20 07:07:50;;;;;;;27.50;16.90;;;;;;;6.42;42.50;99572.73;108172;1257;59348;-67
2023/11/20 07:10:22;;;;;;;25.90;15.20;;;;;;;6.56;42.25;99576.66;108114;1254;72241;-67
2023/11/20 07:12:52;;;;;;;27.20;14.70;;;;;;;6.29;42.92;99577.79;108161;1254;70178;-67
2023/11/20 07:15:20;;;;;;;18.90;10.50;;;;;;;6.08;42.88;99579.24;108103;1254;71503;-67
2023/11/20 07:17:46;;;;;;;17.40;11.90;;;;;;;6.17;43.11;99581.11;108092;1253;61636;-67
2023/11/20 07:20:14;;;;;;;20.40;12.00;;;;;;;6.25;42.99;99580.34;108162;1253;60326;-67
2023/11/20 07:22:40;;;;;;;21.50;12.40;;;;;;;6.15;43.18;99572.60;108106;1254;73074;-67
2023/11/20 07:25:07;;;;;;;18.90;11.00;;;;;;;6.16;43.46;99567.52;108108;1254;70227;-68
2023/11/20 07:27:35;;;;;;;19.50;11.50;;;;;;;6.37;43.26;99565.86;108141;1252;71708;-67
2023/11/20 07:30:03;;;;;;;20.70;11.60;;;;;;;6.66;42.91;99562.24;108108;1254;60868;-67
2023/11/20 07:32:31;;;;;;;19.90;12.10;;;;;;;6.95;42.33;99561.17;108113;1254;59977;-67
2023/11/20 07:34:57;;;;;;;16.80;10.10;;;;;;;7.26;41.59;99557.55;108098;1254;73073;-68
2023/11/20 07:37:24;;;;;;;17.00;9.80;;;;;;;7.45;41.39;99552.41;108102;1253;70870;-67
2023/11/20 07:39:51;;;;;;;17.70;10.00;;;;;;;7.74;40.83;99551.60;108099;1253;72682;-68
2023/11/20 07:42:17;;;;;;;15.10;8.70;;;;;;;8.20;40.87;99548.06;108056;1254;59756;-68
2023/11/20 07:44:44;;;;;;;14.10;9.80;;;;;;;8.91;40.02;99539.27;108100;1254;60123;-67
2023/11/20 07:47:12;;;;;;;15.60;9.60;;;;;;;9.57;39.47;99536.91;108078;1253;73304;-68
2023/11/20 07:49:38;;;;;;;13.40;9.20;;;;;;;10.48;37.25;99535.01;108106;1254;68856;-68
2023/11/20 07:52:05;;;;;;;14.50;9.00;;;;;;;11.26;36.33;99526.57;108045;1254;71375;-68
2023/11/20 07:54:32;;;;;;;12.20;8.00;;;;;;;12.16;34.82;99529.75;108089;1254;59184;-68
2023/11/20 07:56:59;;;;;;;20.30;11.20;;;;;;;12.88;32.92;99528.81;108099;1253;60129;-68
2023/11/20 07:59:25;;;;;;;14.60;9.20;;;;;;;13.49;32.95;99529.42;108124;1254;73096;-68
2023/11/20 08:01:52;;;;;;;11.10;7.50;;;;;;;14.25;31.62;99521.69;108104;1256;59796;-68
2023/11/20 08:04:18;;;;;;;11.70;7.80;;;;;;;14.94;31.26;99519.30;108079;1254;72522;-68
2023/11/20 08:06:45;;;;;;;8.80;6.20;;;;;;;15.57;29.57;99517.95;108105;1253;59470;-68
2023/11/20 08:09:13;;;;;;;17.10;11.50;;;;;;;16.31;29.24;99519.10;108030;1254;60222;-69
2023/11/20 08:11:41;;;;;;;11.10;7.70;;;;;;;16.89;28.24;99517.95;108082;1254;72891;-68
2023/11/20 08:14:07;;;;;;;11.10;7.60;;;;;;;17.31;27.26;99521.15;108092;1253;69704;-69
2023/11/20 08:16:34;;;;;;;11.00;8.40;;;;;;;17.52;26.58;99516.00;108160;1254;72466;-68
2023/11/20 08:19:03;;;;;;;8.70;6.30;;;;;;;17.81;26.08;99514.02;108180;1252;59510;-68
2023/11/20 08:21:31;;;;;;;12.00;7.50;;;;;;;18.09;25.28;99513.60;108155;1253;60740;-68
2023/11/20 08:23:58;;;;;;;12.50;8.20;;;;;;;18.41;25.48;99511.08;108179;1254;71767;-69
2023/11/20 08:26:25;;;;;;;8.60;6.70;;;;;;;18.63;24.74;99509.38;108266;1253;71425;-69
2023/11/20 08:28:52;;;;;;;12.70;7.40;;;;;;;19.04;24.33;99501.97;108171;1254;72439;-69
2023/11/20 08:31:19;;;;;;;10.00;6.50;;;;;;;19.63;24.05;99499.75;108234;1253;59203;-69
2023/11/20 08:33:45;;;;;;;8.50;6.40;;;;;;;19.94;23.30;99495.17;108211;1254;59998;-69
2023/11/20 08:36:13;;;;;;;8.00;6.00;;;;;;;19.96;23.50;99496.73;108160;1254;73257;-69
2023/11/20 08:38:40;;;;;;;9.70;6.40;;;;;;;20.31;22.57;99491.07;108181;1253;70190;-69
2023/11/20 08:41:08;;;;;;;9.90;7.00;;;;;;;20.24;22.55;99490.71;108209;1254;72548;-69
2023/11/20 08:43:35;;;;;;;9.00;6.80;;;;;;;20.33;22.45;99490.89;108218;1254;61592;-69
2023/11/20 08:46:01;;;;;;;9.90;6.00;;;;;;;19.94;22.31;99490.55;108202;1253;60160;-69
2023/11/20 08:48:41;;;;;;;9.10;6.60;;;;;;;19.75;22.60;99487.30;108172;1256;73084;-69
2023/11/20 08:51:08;;;;;;;12.00;8.40;;;;;;;19.69;22.73;99485.67;108198;1252;71601;-69
2023/11/20 08:53:35;;;;;;;9.40;7.70;;;;;;;19.42;22.85;99481.56;108135;1253;72525;-69
2023/11/20 08:56:02;;;;;;;10.60;8.00;;;;;;;19.05;22.93;99480.92;108146;1257;59314;-69
2023/11/20 08:58:29;;;;;;;8.60;6.20;;;;;;;18.60;23.57;99483.09;108009;1253;60417;-68
2023/11/20 09:00:56;;;;;;;14.60;8.70;;;;;;;18.66;24.04;99482.98;108151;1253;71577;-68
2023/11/20 09:03:22;;;;;;;10.10;7.40;;;;;;;18.71;23.55;99478.31;108030;1252;69523;-69
2023/11/20 09:05:50;;;;;;;9.30;7.30;;;;;;;18.28;23.34;99483.49;108001;1252;73886;-68
2023/11/20 09:08:16;;;;;;;10.40;6.80;;;;;;;18.12;24.35;99481.42;108210;1253;60493;-68
2023/11/20 09:10:44;;;;;;;9.20;6.30;;;;;;;17.77;24.13;99480.34;108246;1253;60293;-68
2023/11/20 09:13:11;;;;;;;8.80;6.40;;;;;;;17.24;24.72;99478.73;108219;1253;73012;-68
2023/11/20 09:15:37;;;;;;;10.60;7.70;;;;;;;16.94;25.20;99477.59;108209;1254;68876;-69
2023/11/20 09:18:05;;;;;;;10.40;6.80;;;;;;;16.84;25.02;99476.54;108179;1256;71973;-68
2023/11/20 09:20:34;;;;;;;12.50;8.30;;;;;;;16.58;25.41;99475.92;108237;1253;59643;-68
2023/11/20 09:23:00;;;;;;;11.80;8.40;;;;;;;16.41;25.76;99474.98;108217;1252;60107;-68
2023/11/20 09:25:29;;;;;;;10.70;7.60;;;;;;;16.57;25.85;99473.69;108149;1253;72601;-68
2023/11/20 09:27:56;;;;;;;11.20;7.20;;;;;;;16.60;26.16;99471.17;108181;1253;69071;-68
2023/11/20 09:30:25;;;;;;;12.90;8.90;;;;;;;16.86;25.58;99469.10;108232;1253;72565;-68
2023/11/20 09:32:51;;;;;;;10.80;7.20;;;;;;;16.94;25.42;99474.15;108142;1252;60001;-69
2023/11/20 09:35:20;;;;;;;9.50;6.40;;;;;;;16.87;25.44;99473.96;108161;1253;60084;-68
2023/11/20 09:37:47;;;;;;;9.40;6.50;;;;;;;16.55;25.36;99468.84;108192;1254;73403;-68
2023/11/20 09:40:14;;;;;;;12.00;8.30;;;;;;;16.29;25.81;99471.58;108166;1254;71678;-68
2023/11/20 09:42:43;;;;;;;8.80;6.40;;;;;;;15.99;26.10;99469.30;108022;1253;72707;-68
2023/11/20 09:45:25;;;;;;;11.50;7.30;;;;;;;15.70;26.48;99467.38;108199;1252;60284;-68
2023/11/20 09:47:51;;;;;;;;;;;;;;;15.60;27.25;99468.41;108052;1253;59514;-69
2023/11/20 09:50:18;;;;;;;10.60;6.80;;;;;;;15.58;26.79;99469.75;108061;1254;73031;-69
2023/11/20 09:52:45;;;;;;;12.20;7.20;;;;;;;15.29;26.93;99469.48;108105;1258;70162;-68
2023/11/20 09:55:12;;;;;;;10.50;7.50;;;;;;;15.19;27.42;99466.08;108185;1252;72680;-68
2023/11/20 09:57:39;;;;;;;9.10;6.90;;;;;;;15.36;27.29;99466.17;108171;1253;59584;-69
2023/11/20 10:00:08;;;;;;;10.50;7.10;;;;;;;15.27;27.41;99464.05;108196;1252;60034;-69
2023/11/20 10:02:35;;;;;;;9.30;6.60;;;;;;;15.33;27.47;99462.42;108224;1253;72790;-69
2023/11/20 10:05:02;;;;;;;11.20;6.80;;;;;;;15.39;27.44;99456.04;108160;1253;70592;-69
2023/11/20 10:07:31;;;;;;;9.80;6.50;;;;;;;15.66;27.44;99459.67;108031;1252;72731;-69
2023/11/20 10:09:58;;;;;;;10.80;6.70;;;;;;;15.69;27.34;99457.88;108191;1252;60314;-69
2023/11/20 10:12:26;;;;;;;10.40;7.90;;;;;;;15.84;27.38;99455.78;108222;1252;60210;-68
2023/11/20 10:14:53;;;;;;;10.70;6.10;;;;;;;16.05;27.16;99453.83;108138;1253;71808;-69
2023/11/20 10:17:20;;;;;;;10.40;6.60;;;;;;;16.28;27.04;99454.28;108242;1257;68587;-68
2023/11/20 10:19:47;;;;;;;9.90;6.10;;;;;;;16.47;26.91;99454.55;108231;1253;72509;-69
2023/11/20 10:22:15;;;;;;;9.10;6.50;;;;;;;16.53;26.63;99450.00;108153;1253;59784;-68
2023/11/20 10:24:42;;;;;;;10.40;6.20;;;;;;;16.67;26.55;99451.14;108192;1253;59585;-68
2023/11/20 10:27:09;;;;;;;8.00;5.80;;;;;;;16.81;26.63;99451.95;108238;1252;74224;-68
2023/11/20 10:29:35;;;;;;;8.90;6.10;;;;;;;17.01;26.39;99448.54;108221;1253;70195;-68
2023/11/20 10:32:02;;;;;;;7.90;5.60;;;;;;;17.24;26.34;99448.38;108193;1252;72679;-69
2023/11/20 10:34:30;;;;;;;21.10;13.10;;;;;;;17.29;25.89;99448.55;108094;1253;61449;-69
2023/11/20 10:37:05;;;;;;;11.50;7.60;;;;;;;17.20;26.01;99446.89;108251;1253;60266;-68
2023/11/20 10:39:32;;;;;;;20.30;11.00;;;;;;;16.95;25.89;99445.97;108212;1253;72143;-68
2023/11/20 10:41:59;;;;;;;12.30;8.10;;;;;;;16.51;26.08;99444.35;108233;1256;70365;-68
2023/11/20 10:44:26;;;;;;;9.00;6.70;;;;;;;16.08;26.59;99446.50;108150;1253;72729;-68
2023/11/20 10:46:53;;;;;;;9.80;7.10;;;;;;;16.02;27.12;99446.38;108180;1253;59641;-68
2023/11/20 10:49:21;;;;;;;9.00;5.80;;;;;;;16.11;26.78;99445.90;108175;1252;60365;-68
2023/11/20 10:51:57;;;;;;;17.20;7.40;;;;;;;16.21;27.10;99451.48;108273;1253;72946;-69
2023/11/20 10:54:32;;;;;;;12.40;7.20;;;;;;;16.41;27.06;99447.37;108275;1253;70143;-68
2023/11/20 10:57:05;;;;;;;17.50;6.70;;;;;;;16.58;26.62;99446.45;108225;1253;72805;-69
2023/11/20 10:59:34;;;;;;;10.20;5.90;;;;;;;16.56;26.87;99445.02;108214;1257;60409;-68
2023/11/20 11:02:01;;;;;;;10.80;7.00;;;;;;;16.78;26.40;99439.52;108219;1253;60132;-69
2023/11/20 11:04:29;;;;;;;9.20;6.20;;;;;;;16.82;26.56;99438.95;108070;1253;72732;-69
2023/11/20 11:06:56;;;;;;;9.30;6.00;;;;;;;16.83;26.71;99435.82;108087;1253;68443;-69
2023/11/20 11:09:22;;;;;;;7.80;5.90;;;;;;;16.97;26.67;99432.52;107915;1254;71441;-69
2023/11/20 11:11:50;;;;;;;10.70;6.70;;;;;;;16.80;26.07;99433.04;108187;1253;60521;-68
2023/11/20 11:14:16;;;;;;;10.70;6.30;;;;;;;16.41;26.51;99431.40;108067;1253;60295;-68
2023/11/20 11:16:47;;;;;;;8.00;5.90;;;;;;;16.45;27.70;99433.59;108196;1253;73976;-68
2023/11/20 11:19:17;;;;;;;11.20;7.90;;;;;;;16.78;27.06;99430.52;108228;1252;70435;-69
2023/11/20 11:21:52;;;;;;;10.80;6.20;;;;;;;16.48;26.71;99425.60;108141;1253;72852;-68
2023/11/20 11:24:18;;;;;;;14.70;6.20;;;;;;;16.33;27.16;99422.75;108199;1252;61278;-69